createdAt,value
2018-06-22T00:01:46.540Z,1.90
2018-06-22T00:04:15.129Z,2.80
2018-06-22T00:06:43.725Z,2.37
2018-06-22T00:09:12.298Z,2.00
2018-06-22T00:11:40.819Z,2.50
2018-06-22T00:14:09.339Z,1.70
2018-06-22T00:16:38.118Z,1.80
2018-06-22T00:19:06.552Z,1.90
2018-06-22T00:21:35.210Z,2.27
2018-06-22T00:24:03.683Z,1.93
2018-06-22T00:26:32.082Z,2.10
2018-06-22T00:29:00.736Z,2.10
2018-06-22T00:31:29.265Z,2.00
2018-06-22T00:33:57.635Z,1.97
2018-06-22T00:36:26.260Z,1.67
2018-06-22T00:38:55.413Z,2.17
2018-06-22T00:41:24.082Z,2.13
2018-06-22T00:43:52.865Z,1.90
2018-06-22T00:46:21.479Z,2.30
2018-06-22T00:48:50.157Z,1.70
2018-06-22T00:51:18.796Z,2.30
2018-06-22T00:54:04.403Z,2.07
2018-06-22T00:56:32.888Z,1.90
2018-06-22T00:59:01.526Z,2.10
2018-06-22T01:01:29.782Z,1.77
2018-06-22T01:03:58.177Z,2.30
2018-06-22T01:06:26.660Z,1.67
2018-06-22T01:08:55.111Z,1.87
2018-06-22T01:11:23.875Z,2.00
2018-06-22T01:13:52.396Z,1.60
2018-06-22T01:16:21.364Z,2.20
2018-06-22T01:18:49.808Z,2.00
2018-06-22T01:21:18.851Z,2.67
2018-06-22T01:23:47.622Z,2.50
2018-06-22T01:26:16.149Z,2.37
2018-06-22T01:28:44.428Z,3.00
2018-06-22T01:31:12.891Z,2.43
2018-06-22T01:33:41.272Z,2.37
2018-06-22T01:36:09.870Z,2.60
2018-06-22T01:38:38.504Z,4.27
2018-06-22T01:41:07.271Z,4.20
2018-06-22T01:43:36.697Z,4.80
2018-06-22T01:46:05.392Z,4.93
2018-06-22T01:48:33.873Z,4.80
2018-06-22T01:51:02.273Z,3.13
2018-06-22T01:53:31.048Z,3.13
2018-06-22T01:55:59.712Z,3.10
2018-06-22T01:58:28.212Z,2.43
2018-06-22T02:00:56.830Z,2.50
2018-06-22T02:03:25.274Z,2.70
2018-06-22T02:05:54.002Z,2.37
2018-06-22T02:08:22.532Z,2.33
2018-06-22T02:10:50.976Z,2.17
2018-06-22T02:13:19.665Z,2.40
2018-06-22T02:15:47.992Z,2.30
2018-06-22T02:18:16.397Z,2.10
2018-06-22T02:20:45.255Z,2.17
2018-06-22T02:23:13.811Z,2.40
2018-06-22T02:25:42.031Z,2.47
2018-06-22T02:28:10.667Z,2.63
2018-06-22T02:30:39.119Z,2.97
2018-06-22T02:33:07.726Z,2.93
2018-06-22T02:35:36.115Z,3.83
2018-06-22T02:38:05.252Z,3.37
2018-06-22T02:40:33.825Z,3.17
2018-06-22T02:43:02.296Z,2.90
2018-06-22T02:45:30.838Z,2.43
2018-06-22T02:47:59.526Z,2.50
2018-06-22T02:50:27.856Z,2.70
2018-06-22T02:52:56.351Z,2.27
2018-06-22T02:55:24.960Z,1.77
2018-06-22T02:57:53.465Z,2.33
2018-06-22T03:00:22.022Z,2.27
2018-06-22T03:02:50.667Z,2.00
2018-06-22T03:05:19.178Z,1.80
2018-06-22T03:07:47.598Z,1.80
2018-06-22T03:10:15.920Z,2.43
2018-06-22T03:12:44.489Z,1.87
2018-06-22T03:15:13.069Z,2.30
2018-06-22T03:17:41.573Z,2.73
2018-06-22T03:20:10.186Z,2.10
2018-06-22T03:22:38.636Z,2.47
2018-06-22T03:25:07.069Z,2.53
2018-06-22T03:27:35.299Z,2.43
2018-06-22T03:30:03.949Z,2.33
2018-06-22T03:32:32.432Z,2.20
2018-06-22T03:35:01.013Z,2.20
2018-06-22T03:37:29.929Z,2.50
2018-06-22T03:39:58.443Z,1.93
2018-06-22T03:42:27.046Z,3.07
2018-06-22T03:44:55.588Z,2.67
2018-06-22T03:47:24.101Z,2.43
2018-06-22T03:49:52.520Z,3.03
2018-06-22T03:52:20.984Z,3.80
2018-06-22T03:54:49.327Z,2.97
2018-06-22T03:57:17.851Z,3.40
2018-06-22T03:59:46.195Z,4.00
2018-06-22T04:02:14.766Z,5.03
2018-06-22T04:04:43.132Z,4.00
2018-06-22T04:07:11.599Z,3.00
2018-06-22T04:09:40.325Z,2.90
2018-06-22T04:12:08.832Z,4.23
2018-06-22T04:14:37.420Z,3.70
2018-06-22T04:17:05.856Z,3.97
2018-06-22T04:19:34.292Z,5.80
2018-06-22T04:22:02.665Z,6.07
2018-06-22T04:24:31.145Z,4.47
2018-06-22T04:26:59.527Z,3.27
2018-06-22T04:29:27.928Z,2.47
2018-06-22T04:31:56.282Z,2.20
2018-06-22T04:34:24.918Z,2.80
2018-06-22T04:36:53.640Z,5.53
2018-06-22T04:39:22.145Z,7.23
2018-06-22T04:41:50.614Z,9.93
2018-06-22T04:44:18.955Z,8.40
2018-06-22T04:46:47.451Z,8.13
2018-06-22T04:49:16.022Z,5.30
2018-06-22T04:51:44.780Z,4.43
2018-06-22T04:54:13.306Z,2.50
2018-06-22T04:56:41.778Z,2.57
2018-06-22T04:59:10.308Z,3.00
2018-06-22T05:01:38.944Z,2.50
2018-06-22T05:04:07.500Z,3.33
2018-06-22T05:06:36.293Z,3.63
2018-06-22T05:09:07.503Z,4.10
2018-06-22T05:11:36.021Z,6.93
2018-06-22T05:14:04.597Z,8.20
2018-06-22T05:16:33.151Z,6.77
2018-06-22T05:19:02.080Z,7.20
2018-06-22T05:21:30.621Z,7.07
2018-06-22T05:23:58.865Z,7.63
2018-06-22T05:26:27.816Z,7.47
2018-06-22T05:28:56.221Z,5.87
2018-06-22T05:31:25.286Z,5.63
2018-06-22T05:33:54.128Z,6.17
2018-06-22T05:36:22.770Z,5.87
2018-06-22T05:38:51.290Z,4.60
2018-06-22T05:41:19.784Z,4.50
2018-06-22T05:43:50.352Z,3.97
2018-06-22T05:46:33.463Z,2.90
2018-06-22T05:49:03.194Z,2.90
2018-06-22T05:51:31.681Z,2.40
2018-06-22T05:54:00.378Z,3.00
2018-06-22T05:56:28.995Z,2.83
2018-06-22T05:59:00.227Z,3.03
2018-06-22T06:01:29.221Z,2.60
2018-06-22T06:03:57.663Z,3.07
2018-06-22T06:06:29.036Z,2.80
2018-06-22T06:08:57.720Z,2.50
2018-06-22T06:11:26.145Z,2.80
2018-06-22T06:13:54.682Z,3.00
2018-06-22T06:16:23.184Z,2.90
2018-06-22T06:18:51.787Z,2.77
2018-06-22T06:21:20.410Z,3.57
2018-06-22T06:23:48.805Z,3.53
2018-06-22T06:26:17.334Z,3.07
2018-06-22T06:28:46.131Z,3.47
2018-06-22T06:31:14.665Z,3.00
2018-06-22T06:33:43.478Z,2.93
2018-06-22T06:36:11.875Z,3.20
2018-06-22T06:38:40.293Z,2.90
2018-06-22T06:41:09.120Z,3.27
2018-06-22T06:43:37.899Z,3.80
2018-06-22T06:46:06.424Z,3.03
2018-06-22T06:48:35.077Z,3.00
2018-06-22T06:51:03.663Z,3.10
2018-06-22T06:53:32.093Z,2.50
2018-06-22T06:56:00.843Z,3.10
2018-06-22T06:58:29.778Z,3.47
2018-06-22T07:00:58.124Z,2.73
2018-06-22T07:03:26.619Z,2.70
2018-06-22T07:05:55.265Z,2.70
2018-06-22T07:08:24.194Z,3.20
2018-06-22T07:10:52.864Z,2.90
2018-06-22T07:13:21.292Z,2.87
2018-06-22T07:15:49.721Z,3.13
2018-06-22T07:18:18.405Z,3.17
2018-06-22T07:20:47.216Z,3.20
2018-06-22T07:23:16.095Z,3.27
2018-06-22T07:25:45.027Z,3.33
2018-06-22T07:28:13.332Z,3.17
2018-06-22T07:30:42.092Z,3.87
2018-06-22T07:33:10.549Z,3.60
2018-06-22T07:35:38.932Z,3.60
2018-06-22T07:38:07.630Z,3.30
2018-06-22T07:40:36.216Z,3.40
2018-06-22T07:43:04.900Z,3.20
2018-06-22T07:45:33.177Z,4.00
2018-06-22T07:48:01.525Z,3.20
2018-06-22T07:50:29.890Z,3.93
2018-06-22T07:52:58.572Z,3.87
2018-06-22T07:55:27.122Z,3.53
2018-06-22T07:57:55.849Z,4.00
2018-06-22T08:00:24.295Z,4.33
2018-06-22T08:02:53.046Z,3.33
2018-06-22T08:05:21.438Z,4.40
2018-06-22T08:07:50.023Z,4.03
2018-06-22T08:10:18.559Z,4.50
2018-06-22T08:12:47.878Z,4.20
2018-06-22T08:15:16.873Z,4.17
2018-06-22T08:17:50.672Z,4.17
2018-06-22T08:20:28.404Z,3.97
2018-06-22T08:22:57.091Z,4.10
2018-06-22T08:25:25.680Z,3.70
2018-06-22T08:27:55.743Z,3.87
2018-06-22T08:30:29.953Z,4.37
2018-06-22T08:32:59.311Z,3.57
2018-06-22T08:35:29.389Z,4.27
2018-06-22T08:37:59.186Z,3.53
2018-06-22T08:40:31.640Z,3.50
2018-06-22T08:43:03.950Z,4.20
2018-06-22T08:45:33.681Z,3.77
2018-06-22T08:48:03.120Z,3.90
2018-06-22T08:50:36.824Z,4.40
2018-06-22T08:53:06.662Z,4.77
2018-06-22T08:55:35.236Z,4.07
2018-06-22T08:58:07.859Z,4.30
2018-06-22T09:00:37.921Z,3.40
2018-06-22T09:03:10.434Z,3.63
2018-06-22T09:05:40.905Z,4.57
2018-06-22T09:08:09.698Z,4.17
2018-06-22T09:10:38.306Z,4.60
2018-06-22T09:13:06.956Z,4.40
2018-06-22T09:15:37.777Z,4.43
2018-06-22T09:18:08.564Z,4.20
2018-06-22T09:20:37.906Z,4.00
2018-06-22T09:23:08.745Z,4.30
2018-06-22T09:25:40.074Z,4.30
2018-06-22T09:28:09.976Z,4.37
2018-06-22T09:30:38.686Z,4.20
2018-06-22T09:33:07.457Z,4.47
2018-06-22T09:35:43.985Z,4.70
2018-06-22T09:38:13.864Z,3.60
2018-06-22T09:40:42.908Z,4.40
2018-06-22T09:43:13.788Z,4.30
2018-06-22T09:45:42.760Z,3.70
2018-06-22T09:48:14.371Z,4.27
2018-06-22T09:50:46.617Z,4.17
2018-06-22T09:53:18.026Z,3.97
2018-06-22T09:55:46.532Z,4.37
2018-06-22T09:58:20.330Z,3.67
2018-06-22T10:00:52.511Z,3.40
2018-06-22T10:03:22.962Z,4.10
2018-06-22T10:05:52.100Z,3.17
2018-06-22T10:08:21.066Z,3.47
2018-06-22T10:10:53.817Z,3.53
2018-06-22T10:13:23.850Z,3.70
2018-06-22T10:16:05.805Z,3.30
2018-06-22T10:18:36.729Z,3.50
2018-06-22T10:21:08.467Z,3.40
2018-06-22T10:23:38.674Z,3.50
2018-06-22T10:26:09.931Z,3.80
2018-06-22T10:28:39.710Z,3.83
2018-06-22T10:31:11.232Z,3.97
2018-06-22T10:33:41.365Z,3.27
2018-06-22T10:36:11.297Z,3.23
2018-06-22T10:38:39.902Z,2.53
2018-06-22T10:41:08.774Z,2.53
2018-06-22T10:43:37.473Z,2.70
2018-06-22T10:46:10.117Z,3.10
2018-06-22T10:48:38.768Z,2.80
2018-06-22T10:51:07.558Z,3.23
2018-06-22T10:53:36.167Z,3.50
2018-06-22T10:56:11.941Z,3.70
2018-06-22T10:58:41.324Z,3.13
2018-06-22T11:01:12.259Z,4.00
2018-06-22T11:03:41.705Z,3.67
2018-06-22T11:06:11.118Z,2.87
2018-06-22T11:08:41.336Z,3.40
2018-06-22T11:11:09.815Z,3.10
2018-06-22T11:13:38.669Z,2.67
2018-06-22T11:16:07.226Z,2.80
2018-06-22T11:18:35.955Z,2.77
2018-06-22T11:21:05.120Z,2.97
2018-06-22T11:23:33.455Z,2.33
2018-06-22T11:26:02.158Z,2.90
2018-06-22T11:28:32.468Z,2.57
2018-06-22T11:31:01.970Z,2.53
2018-06-22T11:33:30.545Z,4.23
2018-06-22T11:35:59.672Z,4.60
2018-06-22T11:38:28.446Z,3.93
2018-06-22T11:40:57.259Z,2.83
2018-06-22T11:43:25.634Z,1.97
2018-06-22T11:45:55.141Z,2.27
2018-06-22T11:48:23.802Z,2.97
2018-06-22T11:50:52.275Z,2.30
2018-06-22T11:53:21.040Z,2.53
2018-06-22T11:55:49.854Z,2.17
2018-06-22T11:58:18.716Z,2.70
2018-06-22T12:00:47.568Z,2.63
2018-06-22T12:03:16.737Z,2.60
2018-06-22T12:05:45.676Z,2.53
2018-06-22T12:08:14.617Z,2.60
2018-06-22T12:10:43.267Z,2.40
2018-06-22T12:13:11.808Z,2.73
2018-06-22T12:15:40.231Z,2.43
2018-06-22T12:18:08.866Z,2.80
2018-06-22T12:20:37.557Z,2.50
2018-06-22T12:23:06.396Z,2.40
2018-06-22T12:25:35.216Z,2.17
2018-06-22T12:28:03.764Z,2.43
2018-06-22T12:30:33.994Z,2.30
2018-06-22T12:33:02.659Z,2.07
2018-06-22T12:35:31.405Z,2.13
2018-06-22T12:37:59.966Z,1.90
2018-06-22T12:40:28.528Z,1.90
2018-06-22T12:42:57.147Z,2.47
2018-06-22T12:45:26.180Z,1.97
2018-06-22T12:47:55.469Z,2.20
2018-06-22T12:50:24.455Z,1.97
2018-06-22T12:52:52.904Z,1.70
2018-06-22T12:55:21.368Z,2.40
2018-06-22T12:57:50.101Z,2.53
2018-06-22T13:00:18.654Z,2.47
2018-06-22T13:02:47.278Z,2.03
2018-06-22T13:05:15.951Z,1.93
2018-06-22T13:07:44.412Z,2.03
2018-06-22T13:10:13.001Z,2.03
2018-06-22T13:12:41.526Z,2.07
2018-06-22T13:15:10.092Z,1.50
2018-06-22T13:17:38.666Z,1.90
2018-06-22T13:20:07.336Z,1.87
2018-06-22T13:22:36.157Z,1.60
2018-06-22T13:25:04.955Z,1.80
2018-06-22T13:27:33.637Z,2.60
2018-06-22T13:30:02.165Z,2.07
2018-06-22T13:32:30.796Z,2.13
2018-06-22T13:34:59.346Z,1.90
2018-06-22T13:37:27.828Z,2.30
2018-06-22T13:39:56.894Z,1.73
2018-06-22T13:42:25.720Z,1.50
2018-06-22T13:44:55.424Z,1.33
2018-06-22T13:47:24.498Z,1.57
2018-06-22T13:49:53.557Z,1.77
2018-06-22T13:52:22.250Z,1.97
2018-06-22T13:54:50.803Z,2.17
2018-06-22T13:57:19.554Z,1.83
2018-06-22T13:59:48.202Z,1.63
2018-06-22T14:02:16.763Z,2.00
2018-06-22T14:04:51.162Z,1.80
2018-06-22T14:07:20.017Z,2.10
2018-06-22T14:09:48.702Z,3.07
2018-06-22T14:12:18.112Z,2.50
2018-06-22T14:14:46.746Z,2.60
2018-06-22T14:17:15.297Z,2.50
2018-06-22T14:19:44.014Z,2.20
2018-06-22T14:22:12.592Z,1.93
2018-06-22T14:24:41.323Z,1.80
2018-06-22T14:27:09.745Z,1.67
2018-06-22T14:29:38.422Z,1.70
2018-06-22T14:32:07.251Z,2.33
2018-06-22T14:34:35.982Z,1.77
2018-06-22T14:37:05.028Z,1.90
2018-06-22T14:39:33.505Z,1.53
2018-06-22T14:42:02.322Z,1.47
2018-06-22T14:44:30.898Z,2.40
2018-06-22T14:46:59.376Z,2.03
2018-06-22T14:49:27.842Z,1.83
2018-06-22T14:52:01.456Z,2.27
2018-06-22T14:54:35.892Z,2.13
2018-06-22T14:57:10.015Z,2.00
2018-06-22T14:59:44.311Z,1.90
2018-06-22T15:02:18.575Z,1.60
2018-06-22T15:04:52.812Z,1.90
2018-06-22T15:07:26.974Z,1.53
2018-06-22T15:09:55.582Z,1.90
2018-06-22T15:12:24.214Z,1.90
2018-06-22T15:14:52.887Z,1.67
2018-06-22T15:17:22.263Z,1.70
2018-06-22T15:19:50.789Z,1.70
2018-06-22T15:22:19.455Z,1.77
2018-06-22T15:24:48.143Z,1.80
2018-06-22T15:27:16.825Z,1.63
2018-06-22T15:29:45.445Z,1.93
2018-06-22T15:32:14.194Z,2.00
2018-06-22T15:34:48.626Z,1.93
2018-06-22T15:37:22.788Z,2.03
2018-06-22T15:40:55.874Z,1.70
2018-06-22T15:43:29.981Z,1.60
2018-06-22T15:46:04.327Z,1.97
2018-06-22T15:48:45.735Z,1.70
2018-06-22T15:51:20.006Z,1.73
2018-06-22T15:53:54.187Z,1.77
2018-06-22T15:56:23.651Z,1.80
2018-06-22T15:58:52.455Z,2.13
2018-06-22T16:01:21.273Z,2.20
2018-06-22T16:03:55.541Z,1.60
2018-06-22T16:06:24.435Z,1.50
2018-06-22T16:08:53.328Z,1.70
2018-06-22T16:11:26.120Z,2.10
2018-06-22T16:14:00.561Z,2.00
2018-06-22T16:16:35.305Z,2.20
2018-06-22T16:19:09.422Z,2.10
2018-06-22T16:21:43.419Z,1.70
2018-06-22T16:24:17.607Z,1.60
2018-06-22T16:26:51.917Z,1.97
2018-06-22T16:29:20.373Z,2.07
2018-06-22T16:31:48.998Z,1.83
2018-06-22T16:34:17.437Z,2.00
2018-06-22T16:36:47.640Z,2.07
2018-06-22T16:39:16.329Z,1.97
2018-06-22T16:41:44.904Z,1.97
2018-06-22T16:44:13.705Z,1.80
2018-06-22T16:46:42.353Z,1.80
2018-06-22T16:49:11.204Z,1.70
2018-06-22T16:51:41.954Z,1.87
2018-06-22T16:54:10.339Z,2.03
2018-06-22T16:56:38.964Z,1.90
2018-06-22T16:59:07.614Z,1.63
2018-06-22T17:01:35.923Z,2.37
2018-06-22T17:04:04.640Z,2.00
2018-06-22T17:06:38.960Z,2.57
2018-06-22T17:09:14.194Z,2.23
2018-06-22T17:11:48.387Z,2.50
2018-06-22T17:14:22.712Z,2.53
2018-06-22T17:16:56.905Z,2.10
2018-06-22T17:19:25.547Z,2.00
2018-06-22T17:21:54.123Z,1.93
2018-06-22T17:24:22.840Z,1.97
2018-06-22T17:26:51.166Z,2.50
2018-06-22T17:29:19.571Z,2.50
2018-06-22T17:31:48.452Z,1.90
2018-06-22T17:34:19.565Z,1.90
2018-06-22T17:36:48.362Z,2.60
2018-06-22T17:39:17.120Z,2.10
2018-06-22T17:41:45.987Z,1.70
2018-06-22T17:44:14.326Z,2.63
2018-06-22T17:46:42.903Z,1.87
2018-06-22T17:49:11.499Z,1.93
2018-06-22T17:51:40.956Z,1.77
2018-06-22T17:54:09.761Z,1.80
2018-06-22T17:56:38.589Z,2.07
2018-06-22T17:59:12.694Z,2.40
2018-06-22T18:02:45.863Z,2.43
2018-06-22T18:05:20.081Z,2.70
2018-06-22T18:07:49.205Z,3.87
2018-06-22T18:10:23.396Z,2.27
2018-06-22T18:12:54.796Z,4.20
2018-06-22T18:15:23.439Z,2.33
2018-06-22T18:17:52.062Z,2.40
2018-06-22T18:20:20.859Z,1.57
2018-06-22T18:22:49.538Z,2.03
2018-06-22T18:25:18.322Z,2.40
2018-06-22T18:27:47.004Z,2.20
2018-06-22T18:30:16.227Z,2.60
2018-06-22T18:32:44.788Z,2.20
2018-06-22T18:35:14.693Z,2.40
2018-06-22T18:37:43.470Z,2.03
2018-06-22T18:40:12.334Z,2.03
2018-06-22T18:42:40.865Z,2.23
2018-06-22T18:45:11.416Z,1.83
2018-06-22T18:47:40.665Z,2.30
2018-06-22T18:50:09.508Z,2.03
2018-06-22T18:52:43.486Z,2.40
2018-06-22T18:57:45.764Z,2.27
2018-06-22T19:00:20.099Z,2.30
2018-06-22T19:02:54.584Z,2.87
2018-06-22T19:05:23.457Z,2.60
2018-06-22T19:07:52.029Z,2.00
2018-06-22T19:10:20.608Z,2.60
2018-06-22T19:12:49.113Z,2.70
2018-06-22T19:15:22.780Z,2.83
2018-06-22T19:17:51.457Z,2.90
2018-06-22T19:20:19.955Z,3.57
2018-06-22T19:22:48.329Z,3.00
2018-06-22T19:25:16.857Z,3.37
2018-06-22T19:27:45.419Z,3.10
2018-06-22T19:30:14.292Z,3.37
2018-06-22T19:32:43.455Z,3.17
2018-06-22T19:35:13.548Z,2.77
2018-06-22T19:37:43.639Z,3.20
2018-06-22T19:40:12.493Z,3.40
2018-06-22T19:42:41.218Z,3.30
2018-06-22T19:45:15.233Z,3.30
2018-06-22T19:47:49.648Z,3.60
2018-06-22T19:51:26.690Z,3.27
2018-06-22T19:53:58.255Z,2.90
2018-06-22T19:56:27.015Z,3.10
2018-06-22T19:58:55.767Z,3.30
2018-06-22T20:01:24.369Z,3.60
2018-06-22T20:03:53.003Z,2.93
2018-06-22T20:06:21.769Z,4.87
2018-06-22T20:08:50.357Z,4.03
2018-06-22T20:11:18.980Z,3.30
2018-06-22T20:13:47.619Z,2.93
2018-06-22T20:16:16.394Z,4.17
2018-06-22T20:18:45.143Z,4.07
2018-06-22T20:21:13.690Z,3.60
2018-06-22T20:23:42.185Z,3.27
2018-06-22T20:26:10.987Z,3.60
2018-06-22T20:28:39.581Z,4.13
2018-06-22T20:31:08.353Z,4.07
2018-06-22T20:33:36.890Z,3.30
2018-06-22T20:36:11.279Z,3.30
2018-06-22T20:38:45.507Z,3.10
2018-06-22T20:41:19.356Z,3.57
2018-06-22T20:43:53.485Z,3.37
2018-06-22T20:46:27.620Z,3.43
2018-06-22T20:51:09.044Z,4.03
2018-06-22T20:53:37.373Z,2.97
2018-06-22T20:56:05.875Z,3.27
2018-06-22T20:58:34.768Z,3.57
2018-06-22T21:01:03.512Z,3.60
2018-06-22T21:03:32.040Z,3.37
2018-06-22T21:06:00.922Z,3.00
2018-06-22T21:08:29.473Z,3.60
2018-06-22T21:10:58.340Z,3.10
2018-06-22T21:13:26.979Z,3.57
2018-06-22T21:15:55.732Z,3.53
2018-06-22T21:18:24.293Z,3.60
2018-06-22T21:20:58.265Z,3.40
2018-06-22T21:23:26.906Z,4.30
2018-06-22T21:25:55.525Z,4.33
2018-06-22T21:29:33.759Z,3.57
2018-06-22T21:32:07.941Z,3.93
2018-06-22T21:34:40.981Z,3.47
2018-06-22T21:37:15.301Z,4.23
2018-06-22T21:39:43.532Z,3.57
2018-06-22T21:42:12.083Z,3.93
2018-06-22T21:44:40.794Z,3.57
2018-06-22T21:47:09.515Z,3.70
2018-06-22T21:49:38.194Z,3.83
2018-06-22T21:52:07.015Z,4.50
2018-06-22T21:54:35.670Z,3.67
2018-06-22T21:57:04.440Z,4.07
2018-06-22T21:59:32.950Z,4.00
2018-06-22T22:02:01.467Z,3.93
2018-06-22T22:04:42.503Z,3.37
2018-06-22T22:07:12.381Z,4.07
2018-06-22T22:09:43.022Z,3.53
2018-06-22T22:12:13.012Z,3.67
2018-06-22T22:14:42.928Z,3.27
2018-06-22T22:17:12.077Z,3.77
2018-06-22T22:19:41.834Z,3.87
2018-06-22T22:22:11.788Z,3.20
2018-06-22T22:24:41.380Z,3.80
2018-06-22T22:27:11.438Z,3.57
2018-06-22T22:29:41.311Z,4.30
2018-06-22T22:32:11.287Z,4.10
2018-06-22T22:34:41.618Z,3.60
2018-06-22T22:37:11.528Z,3.87
2018-06-22T22:39:41.989Z,3.73
2018-06-22T22:42:13.265Z,4.37
2018-06-22T22:44:44.136Z,3.50
2018-06-22T22:47:14.081Z,3.33
2018-06-22T22:49:44.430Z,3.50
2018-06-22T22:52:14.965Z,3.80
2018-06-22T22:54:44.861Z,3.93
2018-06-22T22:57:14.981Z,4.03
2018-06-22T22:59:44.571Z,3.80
2018-06-22T23:02:14.180Z,3.50
2018-06-22T23:04:43.800Z,4.30
2018-06-22T23:07:12.611Z,4.60
2018-06-22T23:09:41.622Z,5.03
2018-06-22T23:12:10.581Z,4.43
2018-06-22T23:14:39.348Z,3.93
2018-06-22T23:17:10.300Z,4.43
2018-06-22T23:19:40.260Z,4.93
2018-06-22T23:22:10.199Z,3.80
2018-06-22T23:24:42.720Z,4.10
2018-06-22T23:27:11.512Z,5.33
2018-06-22T23:29:40.900Z,5.50
2018-06-22T23:32:09.792Z,4.70
2018-06-22T23:34:39.093Z,5.03
2018-06-22T23:37:17.191Z,4.20
2018-06-22T23:40:08.972Z,4.80
2018-06-22T23:42:41.102Z,4.33
2018-06-22T23:45:10.301Z,4.60
2018-06-22T23:48:04.443Z,6.03
2018-06-22T23:50:33.564Z,5.73
2018-06-22T23:53:02.481Z,4.90
2018-06-22T23:55:32.724Z,5.30
2018-06-22T23:58:01.586Z,3.80
